NOAA Weather Radio

Lightning Safety

Turn Around Don't Drown
Storm Ready
SkyWarn
WACO REGIONAL AIRPORT, TX, United States (KACT) 31-36N 97-13W 151M
Mar 31, 2015 - 07:51 AM EDT / 2015.03.31 1151 UTC
Wind: from the S (190 degrees) at 15 MPH (13 KT):0
Visibility: 10 mile(s):0
Sky conditions: overcast
Temperature: 66.0 F (18.9 C)
Dew Point: 63.0 F (17.2 C)
Relative Humidity: 89%
Pressure (altimeter): 30.01 in. Hg (1016 hPa)
Pressure tendency: 0.00 inches (0.0 hPa) higher than three hours ago
ob: KACT 311151Z 19013KT 10SM OVC018 19/17 A3001 RMK AO2 SLP156 T01890172 10194 20178 53000
cycle: 12